Time;durP1;ratioP1;P1;durP2;ratioP2;P2;SDS_P1;SDS_P2;PMS_P1;PMS_P2;Temp;Humidity;BMP_temperature;BMP_pressure;BME280_temperature;BME280_humidity;BME280_pressure;Samples;Min_cycle;Max_cycle;Signal;HPM_P1;HPM_P2
2022/03/04 00:00:19;;;;;;;3.10;3.00;;;;;;;0.76;63.91;101491.63;6016428;23;20058;-68
2022/03/04 00:02:45;;;;;;;4.45;4.25;;;;;;;0.71;63.83;101486.47;6009461;23;20023;-68
2022/03/04 00:05:12;;;;;;;2.88;2.78;;;;;;;0.67;63.41;101484.75;5999424;23;20102;-68
2022/03/04 00:07:38;;;;;;;2.80;2.70;;;;;;;0.64;63.56;101481.28;6020197;23;20433;-68
2022/03/04 00:10:05;;;;;;;3.58;3.47;;;;;;;0.42;63.71;101446.81;6015661;23;20233;-68
2022/03/04 00:12:32;;;;;;;3.67;3.25;;;;;;;0.53;63.71;101473.53;6011672;23;20812;-67
2022/03/04 00:14:59;;;;;;;5.32;5.07;;;;;;;0.16;63.84;101424.38;5994640;23;20082;-67
2022/03/04 00:17:25;;;;;;;2.92;2.83;;;;;;;0.48;64.58;101481.28;6049825;23;20123;-68
2022/03/04 00:19:51;;;;;;;4.75;4.55;;;;;;;0.43;64.44;101492.44;5980268;23;20062;-68
2022/03/04 00:22:19;;;;;;;3.50;3.40;;;;;;;0.08;64.76;101429.56;6026020;23;20077;-68
2022/03/04 00:24:45;;;;;;;3.80;3.63;;;;;;;0.27;64.13;101465.72;5993533;23;20034;-68
2022/03/04 00:27:12;;;;;;;2.70;2.60;;;;;;;0.37;65.10;101488.97;6014152;23;20207;-68
2022/03/04 00:29:38;;;;;;;2.70;2.60;;;;;;;0.30;64.91;101487.25;6001058;23;20224;-68
2022/03/04 00:32:05;;;;;;;4.60;4.28;;;;;;;0.33;65.54;101482.09;6012044;23;20019;-68
2022/03/04 00:34:32;;;;;;;2.75;2.65;;;;;;;-0.05;65.68;101428.63;5987821;23;20041;-68
2022/03/04 00:36:58;;;;;;;5.28;4.85;;;;;;;0.34;66.08;101485.53;6023792;23;20023;-67
2022/03/04 00:39:25;;;;;;;2.85;2.75;;;;;;;0.35;65.82;101493.28;5988956;23;20022;-68
2022/03/04 00:41:51;;;;;;;4.53;4.32;;;;;;;0.30;64.45;101495.00;6022084;23;20038;-68
2022/03/04 00:44:18;;;;;;;2.92;2.83;;;;;;;-0.09;64.86;101444.09;5996628;23;20015;-68
2022/03/04 00:46:44;;;;;;;4.20;4.03;;;;;;;-0.78;65.78;101331.22;6024752;23;20080;-68
2022/03/04 00:49:10;;;;;;;2.90;2.80;;;;;;;0.16;65.32;101501.81;5993078;23;20030;-68
2022/03/04 00:51:37;;;;;;;3.70;3.53;;;;;;;-0.33;66.94;101440.56;6026409;23;20015;-68
2022/03/04 00:54:03;;;;;;;2.95;2.85;;;;;;;0.05;67.32;101509.53;6030328;23;20038;-68
2022/03/04 00:56:30;;;;;;;2.53;2.42;;;;;;;-0.15;66.65;101503.41;6026072;23;20424;-68
2022/03/04 00:58:56;;;;;;;5.47;5.22;;;;;;;0.11;67.48;101517.28;5991438;23;20057;-68
2022/03/04 01:01:23;;;;;;;2.70;2.60;;;;;;;0.18;66.39;101515.59;6015942;23;20094;-68
2022/03/04 01:03:49;;;;;;;5.18;4.97;;;;;;;-0.15;66.90;101460.41;5990162;23;20023;-66
2022/03/04 01:06:16;;;;;;;2.72;2.63;;;;;;;0.24;66.25;101515.63;6020646;23;20366;-68
2022/03/04 01:08:42;;;;;;;2.75;2.65;;;;;;;0.22;65.86;101542.28;5986624;23;20014;-68
2022/03/04 01:11:09;;;;;;;4.18;3.30;;;;;;;0.27;67.32;101520.78;6020332;23;20105;-68
2022/03/04 01:13:35;;;;;;;3.47;3.28;;;;;;;0.37;65.96;101522.53;5995625;23;20011;-67
2022/03/04 01:16:02;;;;;;;4.25;4.05;;;;;;;0.35;65.88;101518.25;6023600;23;20600;-67
2022/03/04 01:18:29;;;;;;;3.33;3.20;;;;;;;-0.25;66.47;101428.56;6021541;23;20361;-68
2022/03/04 01:20:56;;;;;;;4.47;4.28;;;;;;;0.23;65.57;101510.47;5989498;23;20022;-68
2022/03/04 01:23:22;;;;;;;2.90;2.80;;;;;;;0.43;65.58;101533.75;6027380;23;20451;-68
2022/03/04 01:25:52;;;;;;;3.92;3.75;;;;;;;0.42;65.76;101527.72;6011755;23;20031;-67
2022/03/04 01:28:20;;;;;;;2.60;2.50;;;;;;;0.39;65.71;101525.13;5992736;23;20039;-67
2022/03/04 01:30:47;;;;;;;4.38;4.18;;;;;;;0.36;65.94;101536.34;6017710;23;20468;-67
2022/03/04 01:33:14;;;;;;;2.60;2.50;;;;;;;0.32;65.93;101521.69;6001237;23;20042;-68
2022/03/04 01:35:41;;;;;;;2.60;2.50;;;;;;;-0.04;66.28;101471.66;5994733;23;20079;-68
2022/03/04 01:38:08;;;;;;;2.72;2.63;;;;;;;0.23;66.85;101513.03;6010863;23;20361;-68
2022/03/04 01:40:34;;;;;;;2.80;2.70;;;;;;;0.08;65.93;101496.66;5994077;23;20036;-68
2022/03/04 01:43:01;;;;;;;2.95;2.85;;;;;;;0.23;66.21;101511.31;6007211;23;20473;-68
2022/03/04 01:45:28;;;;;;;2.70;2.60;;;;;;;0.19;66.64;101514.75;6001783;23;20075;-68
2022/03/04 01:47:55;;;;;;;5.07;4.88;;;;;;;0.17;66.83;101508.72;6029195;23;20313;-68
2022/03/04 01:50:24;;;;;;;2.90;2.80;;;;;;;0.04;67.40;101496.59;6000208;23;20015;-68
2022/03/04 01:52:50;;;;;;;4.55;4.35;;;;;;;-0.27;66.70;101460.38;6012492;23;21331;-68
2022/03/04 01:55:17;;;;;;;3.17;2.97;;;;;;;-0.05;66.05;101507.75;6003960;23;20031;-68
2022/03/04 01:57:44;;;;;;;3.70;3.55;;;;;;;-0.15;67.55;101506.00;6032895;23;20042;-68
2022/03/04 02:00:12;;;;;;;2.90;2.80;;;;;;;-0.23;66.35;101509.38;5998045;23;20413;-68
2022/03/04 02:02:40;;;;;;;3.13;3.03;;;;;;;-0.27;67.67;101509.38;6001818;23;20058;-68
2022/03/04 02:05:10;;;;;;;3.25;3.15;;;;;;;-0.95;67.55;101411.00;5992146;23;20339;-68
2022/03/04 02:07:37;;;;;;;2.80;2.70;;;;;;;-0.91;67.18;101424.75;6026069;23;20483;-68
2022/03/04 02:10:04;;;;;;;2.80;2.70;;;;;;;-0.51;67.43;101508.38;6017776;23;20087;-68
2022/03/04 02:12:30;;;;;;;2.83;2.72;;;;;;;-0.72;67.75;101480.75;5990530;23;20019;-68
2022/03/04 02:14:56;;;;;;;5.32;5.03;;;;;;;-0.52;68.40;101513.50;6018495;23;20021;-68
2022/03/04 02:17:23;;;;;;;2.40;2.30;;;;;;;-0.89;69.03;101454.84;5999087;23;20024;-68
2022/03/04 02:19:53;;;;;;;5.55;5.28;;;;;;;-0.51;69.27;101510.94;6016103;23;20414;-67
2022/03/04 02:22:20;;;;;;;2.63;2.53;;;;;;;-0.52;69.36;101501.50;5997948;23;20484;-68
2022/03/04 02:24:46;;;;;;;4.25;4.05;;;;;;;-0.99;69.40;101432.44;6021698;23;20031;-66
2022/03/04 02:27:13;;;;;;;4.35;4.15;;;;;;;-0.56;68.09;101515.22;5995068;23;20047;-68
2022/03/04 02:29:39;;;;;;;5.05;4.63;;;;;;;-0.59;68.61;101507.44;6019601;23;20022;-68
2022/03/04 02:32:06;;;;;;;3.03;2.92;;;;;;;-0.98;69.38;101448.75;5990401;23;20080;-68
2022/03/04 02:34:32;;;;;;;3.85;2.97;;;;;;;-1.49;69.71;101365.97;6009723;23;20042;-68
2022/03/04 02:36:59;;;;;;;4.78;4.57;;;;;;;-0.72;69.83;101505.63;5992684;23;20098;-67
2022/03/04 02:39:26;;;;;;;2.70;2.60;;;;;;;-0.77;69.75;101515.06;6020470;23;20070;-68
2022/03/04 02:41:52;;;;;;;4.85;4.65;;;;;;;-0.76;70.94;101509.03;5993609;23;20035;-68
2022/03/04 02:44:19;;;;;;;3.20;3.10;;;;;;;-0.82;70.68;101497.84;6022406;23;20015;-68
2022/03/04 02:46:45;;;;;;;3.53;3.40;;;;;;;-1.14;69.78;101434.88;5997395;23;20064;-68
2022/03/04 02:49:12;;;;;;;2.45;2.35;;;;;;;-1.19;70.13;101436.59;6020487;23;20015;-68
2022/03/04 02:51:39;;;;;;;2.50;2.40;;;;;;;-0.85;69.43;101494.38;5979186;23;20019;-68
2022/03/04 02:54:06;;;;;;;2.90;2.80;;;;;;;-0.92;69.59;101497.75;6013346;23;20525;-68
2022/03/04 02:56:33;;;;;;;3.45;3.25;;;;;;;-2.06;70.75;101314.00;6006588;23;20440;-68
2022/03/04 02:58:59;;;;;;;6.43;6.03;;;;;;;-1.06;69.82;101502.81;5996448;23;20054;-67
2022/03/04 03:01:25;;;;;;;3.00;2.90;;;;;;;-2.75;70.53;101225.91;6020144;23;20036;-68
2022/03/04 03:03:53;;;;;;;4.15;3.95;;;;;;;-1.15;70.26;101507.88;5997103;23;20034;-68
2022/03/04 03:06:19;;;;;;;2.70;2.60;;;;;;;-1.22;70.11;101501.81;6019634;23;20015;-67
2022/03/04 03:08:46;;;;;;;3.85;3.65;;;;;;;-1.29;71.82;101495.72;5989854;23;20469;-68
2022/03/04 03:11:14;;;;;;;2.50;2.40;;;;;;;-1.31;70.77;101505.13;6019885;23;20033;-68
2022/03/04 03:13:40;;;;;;;2.80;2.70;;;;;;;-2.90;70.89;101254.84;5991367;23;20564;-67
2022/03/04 03:16:06;;;;;;;3.45;3.25;;;;;;;-1.34;71.25;101506.81;6014351;23;20094;-68
2022/03/04 03:18:33;;;;;;;2.85;2.75;;;;;;;-1.52;72.55;101464.63;5989917;23;20350;-67
2022/03/04 03:21:00;;;;;;;4.18;3.97;;;;;;;-1.25;73.37;101506.91;6020104;23;20030;-68
2022/03/04 03:23:27;;;;;;;2.60;2.50;;;;;;;-1.21;73.30;101506.94;6020929;23;20015;-68
2022/03/04 03:25:53;;;;;;;4.93;4.72;;;;;;;-1.16;74.60;101509.59;6022263;23;20277;-68
2022/03/04 03:28:20;;;;;;;5.53;5.07;;;;;;;-1.30;73.08;101488.00;5994256;23;20071;-68
2022/03/04 03:30:46;;;;;;;3.22;3.13;;;;;;;-1.21;73.44;101506.09;6016914;23;20038;-68
2022/03/04 03:33:12;;;;;;;2.80;2.70;;;;;;;-1.29;72.28;101494.88;5990760;23;20023;-68
2022/03/04 03:35:39;;;;;;;2.50;2.40;;;;;;;-1.36;72.46;101501.69;6030685;23;20022;-68
2022/03/04 03:38:05;;;;;;;2.70;2.60;;;;;;;-2.18;73.81;101380.75;6001524;23;20090;-68
2022/03/04 03:40:32;;;;;;;3.00;2.80;;;;;;;-1.91;73.96;101444.47;6026837;23;20054;-68
2022/03/04 03:42:58;;;;;;;6.28;5.97;;;;;;;-1.60;73.38;101504.84;6015478;23;20050;-67
2022/03/04 03:45:25;;;;;;;2.50;2.40;;;;;;;-1.61;73.44;101508.25;6022976;23;20440;-68
2022/03/04 03:47:52;;;;;;;4.22;4.03;;;;;;;-1.66;73.60;101507.38;6012185;23;20026;-68
2022/03/04 03:50:19;;;;;;;3.60;3.42;;;;;;;-1.69;74.96;101503.03;6000417;23;20464;-68
2022/03/04 03:52:45;;;;;;;3.45;3.33;;;;;;;-1.70;75.65;101506.47;6010052;23;20127;-68
2022/03/04 03:55:12;;;;;;;3.25;3.15;;;;;;;-1.68;75.75;101507.34;5996646;23;20086;-67
2022/03/04 03:57:38;;;;;;;2.50;2.40;;;;;;;-1.63;75.00;101508.25;6029902;23;20456;-68
2022/03/04 04:00:05;;;;;;;2.70;2.60;;;;;;;-2.15;75.42;101424.47;5991577;23;20028;-67
2022/03/04 04:02:32;;;;;;;2.30;2.20;;;;;;;-1.95;76.04;101458.16;6027989;23;20271;-67
2022/03/04 04:04:58;;;;;;;4.60;4.40;;;;;;;-1.58;75.38;101513.47;5992674;23;20011;-67
2022/03/04 04:07:24;;;;;;;2.60;2.50;;;;;;;-1.57;76.16;101515.16;6023586;23;20366;-68
2022/03/04 04:09:51;;;;;;;5.00;4.80;;;;;;;-1.56;76.28;101519.50;5986622;23;20026;-68
2022/03/04 04:12:17;;;;;;;3.05;2.95;;;;;;;-2.50;76.10;101370.94;6015992;23;20025;-68
2022/03/04 04:14:44;;;;;;;2.88;2.78;;;;;;;-1.53;75.77;101523.78;6023185;23;20467;-67
2022/03/04 04:17:11;;;;;;;2.60;2.50;;;;;;;-1.49;76.49;101517.84;6021422;23;20031;-67
2022/03/04 04:19:37;;;;;;;3.20;3.10;;;;;;;-1.51;77.25;101522.09;5994069;23;20118;-67
2022/03/04 04:22:04;;;;;;;4.28;3.97;;;;;;;-1.50;76.02;101521.28;6010202;23;20472;-67
2022/03/04 04:24:30;;;;;;;2.40;2.30;;;;;;;-1.53;76.67;101522.06;6021589;23;20074;-68
2022/03/04 04:26:57;;;;;;;4.35;4.15;;;;;;;-1.62;76.76;101517.69;5990273;23;20031;-68
2022/03/04 04:29:23;;;;;;;4.50;4.28;;;;;;;-1.57;76.02;101530.63;6015155;23;20022;-67
2022/03/04 04:31:52;;;;;;;4.25;4.07;;;;;;;-1.57;75.59;101529.75;5984755;23;20027;-67
2022/03/04 04:34:18;;;;;;;2.60;2.50;;;;;;;-1.61;77.18;101526.28;6004555;23;20015;-67
2022/03/04 04:36:45;;;;;;;3.38;3.25;;;;;;;-1.65;76.33;101525.38;5997368;23;20471;-67
2022/03/04 04:39:11;;;;;;;2.95;2.85;;;;;;;-2.11;76.16;101462.25;6006945;23;20068;-67
2022/03/04 04:41:38;;;;;;;2.60;2.50;;;;;;;-1.64;76.57;101531.41;5984234;23;20027;-68
2022/03/04 04:44:04;;;;;;;2.80;2.70;;;;;;;-1.66;76.50;101536.53;6015585;23;20023;-68
2022/03/04 04:46:31;;;;;;;2.40;2.30;;;;;;;-1.67;76.56;101539.94;5998072;23;20038;-68
2022/03/04 04:48:57;;;;;;;4.65;4.45;;;;;;;-1.83;76.49;101509.72;6018018;23;20420;-68
2022/03/04 04:51:23;;;;;;;2.30;2.20;;;;;;;-1.83;76.47;101510.59;5992561;23;20294;-67
2022/03/04 04:53:51;;;;;;;4.40;4.20;;;;;;;-1.61;76.29;101539.16;6009456;23;20043;-68
2022/03/04 04:56:17;;;;;;;2.70;2.60;;;;;;;-1.62;77.38;101538.28;5990242;23;20035;-68
2022/03/04 04:58:43;;;;;;;2.40;2.30;;;;;;;-3.13;76.68;101290.50;6023699;23;20029;-68
2022/03/04 05:01:11;;;;;;;3.33;3.05;;;;;;;-1.59;76.75;101541.75;5985582;23;20120;-68
2022/03/04 05:03:37;;;;;;;2.15;2.05;;;;;;;-1.63;76.91;101539.13;6028205;23;20033;-68
2022/03/04 05:06:04;;;;;;;2.45;2.35;;;;;;;-1.61;77.40;101546.88;5989788;23;20684;-68
2022/03/04 05:08:30;;;;;;;2.35;2.25;;;;;;;-1.58;77.87;101549.50;6013396;23;20010;-68
2022/03/04 05:10:58;;;;;;;4.25;4.05;;;;;;;-1.58;77.16;101544.34;5982659;23;20024;-68
2022/03/04 05:13:24;;;;;;;3.05;2.85;;;;;;;-2.10;77.52;101451.13;6033388;23;20030;-68
2022/03/04 05:15:51;;;;;;;4.15;3.95;;;;;;;-1.56;77.60;101542.66;5993706;23;20082;-68
2022/03/04 05:18:17;;;;;;;3.78;3.58;;;;;;;-1.57;77.11;101545.19;6016128;23;20022;-68
2022/03/04 05:20:44;;;;;;;2.80;2.70;;;;;;;-2.29;77.07;101430.31;6006553;23;20035;-68
2022/03/04 05:23:11;;;;;;;2.30;2.20;;;;;;;-1.63;76.16;101551.13;6025191;23;20047;-68
2022/03/04 05:25:38;;;;;;;2.20;2.10;;;;;;;-1.71;77.05;101558.75;5996451;23;20138;-67
2022/03/04 05:28:04;;;;;;;2.70;2.60;;;;;;;-1.74;76.34;101552.75;6021228;23;20038;-68
2022/03/04 05:30:31;;;;;;;2.55;2.45;;;;;;;-1.74;77.89;101552.75;6014960;23;20102;-68
2022/03/04 05:32:57;;;;;;;4.45;4.25;;;;;;;-1.72;77.84;101551.06;6012312;23;20050;-67
2022/03/04 05:35:24;;;;;;;2.60;2.50;;;;;;;-1.69;76.77;101557.06;5991567;23;20031;-67
2022/03/04 05:37:50;;;;;;;4.82;4.63;;;;;;;-1.69;77.31;101561.38;6018864;23;20073;-67
2022/03/04 05:40:17;;;;;;;2.45;2.35;;;;;;;-1.73;76.61;101554.44;6024316;23;20552;-68
2022/03/04 05:42:44;;;;;;;2.40;2.30;;;;;;;-1.78;77.23;101556.09;6022179;23;20043;-68
2022/03/04 05:45:10;;;;;;;2.90;2.80;;;;;;;-1.88;76.35;101550.00;5993530;23;20032;-68
2022/03/04 05:47:37;;;;;;;2.30;2.20;;;;;;;-2.36;77.17;101485.06;6018097;23;20031;-67
2022/03/04 05:50:04;;;;;;;2.97;2.88;;;;;;;-2.19;76.93;101510.13;5998325;23;20480;-67
2022/03/04 05:52:30;;;;;;;2.30;2.20;;;;;;;-1.81;76.81;101574.94;6023657;23;20026;-67
2022/03/04 05:54:57;;;;;;;5.30;5.00;;;;;;;-2.13;77.81;101513.66;6023845;23;20154;-68
2022/03/04 05:57:23;;;;;;;2.30;2.20;;;;;;;-1.77;77.86;101570.69;5979974;23;20039;-68
2022/03/04 05:59:50;;;;;;;4.53;4.32;;;;;;;-1.84;76.96;101586.06;6020263;23;20342;-68
2022/03/04 06:02:16;;;;;;;2.90;2.78;;;;;;;-1.97;77.75;101579.00;5996309;23;20488;-68
2022/03/04 06:04:43;;;;;;;2.42;2.33;;;;;;;-2.10;77.54;101579.72;6016473;23;20049;-67
2022/03/04 06:07:09;;;;;;;2.80;2.70;;;;;;;-2.15;78.29;101584.75;6003248;23;20354;-67
2022/03/04 06:09:37;;;;;;;3.15;3.03;;;;;;;-2.18;79.50;101597.59;6026471;23;20129;-67
2022/03/04 06:12:03;;;;;;;2.63;2.53;;;;;;;-2.23;79.62;101596.66;5994490;23;20023;-68
2022/03/04 06:14:30;;;;;;;3.50;3.17;;;;;;;-2.27;81.05;101588.00;6026775;23;20247;-65
2022/03/04 06:16:57;;;;;;;2.80;2.70;;;;;;;-2.31;81.62;101588.81;6003122;23;20019;-67
2022/03/04 06:19:31;;;;;;;2.30;2.20;;;;;;;-2.37;80.50;101593.88;6050506;23;20031;-68
2022/03/04 06:21:58;;;;;;;5.57;5.28;;;;;;;-2.43;82.15;101584.34;6022012;23;20031;-69
2022/03/04 06:24:24;;;;;;;2.30;2.20;;;;;;;-2.46;82.50;101594.59;6021274;23;20043;-68
2022/03/04 06:26:51;;;;;;;4.28;4.07;;;;;;;-2.64;81.84;101571.19;5992928;23;20049;-68
2022/03/04 06:29:17;;;;;;;2.30;2.20;;;;;;;-2.99;81.83;101525.22;6025416;23;20512;-68
2022/03/04 06:31:45;;;;;;;3.42;3.17;;;;;;;-2.53;82.31;101602.19;5989034;23;20035;-69
2022/03/04 06:34:12;;;;;;;2.33;2.22;;;;;;;-2.54;82.13;101603.88;6016362;23;20019;-68
2022/03/04 06:36:38;;;;;;;2.60;2.50;;;;;;;-2.54;82.73;101606.47;6002808;23;20476;-68
2022/03/04 06:39:05;;;;;;;2.00;1.90;;;;;;;-2.52;83.57;101611.63;6024720;23;20049;-69
2022/03/04 06:41:31;;;;;;;2.17;2.08;;;;;;;-2.51;82.31;101614.19;6002545;23;20031;-68
2022/03/04 06:43:58;;;;;;;3.65;3.55;;;;;;;-2.69;82.88;101581.34;6023503;23;20015;-69
2022/03/04 06:46:24;;;;;;;2.40;2.30;;;;;;;-2.45;82.66;101619.44;6025864;23;20033;-69
2022/03/04 06:48:51;;;;;;;4.35;4.15;;;;;;;-2.65;83.35;101584.84;5995441;23;20691;-69
2022/03/04 06:51:17;;;;;;;2.60;2.50;;;;;;;-2.36;84.06;101628.16;6013420;23;20449;-69
2022/03/04 06:53:44;;;;;;;3.13;3.00;;;;;;;-2.31;84.12;101627.38;5975458;23;20024;-69
2022/03/04 06:56:10;;;;;;;2.90;2.80;;;;;;;-2.57;83.40;101583.28;6023679;23;20030;-68
2022/03/04 06:58:40;;;;;;;2.88;2.72;;;;;;;-2.42;84.29;101598.94;5989039;23;20019;-69
2022/03/04 07:01:06;;;;;;;3.13;2.92;;;;;;;-2.11;83.93;101635.41;6016431;23;20058;-69
2022/03/04 07:03:33;;;;;;;2.83;2.72;;;;;;;-2.22;85.68;101616.38;5991917;23;20026;-68
2022/03/04 07:06:00;;;;;;;19.60;18.50;;;;;;;-2.28;85.44;101585.44;5900779;23;20421;-68
2022/03/04 07:08:26;;;;;;;2.30;2.20;;;;;;;-1.73;85.84;101647.09;5990622;23;20031;-68
2022/03/04 07:10:52;;;;;;;5.07;4.80;;;;;;;-1.57;86.16;101656.75;6019895;23;20023;-68
2022/03/04 07:13:21;;;;;;;2.60;2.50;;;;;;;-1.35;86.82;101652.72;5982372;23;20519;-69
2022/03/04 07:15:48;;;;;;;3.72;3.58;;;;;;;-1.16;85.14;101653.81;6014301;23;20109;-69
2022/03/04 07:18:14;;;;;;;2.60;2.50;;;;;;;-0.98;84.74;101653.16;5978514;23;20016;-69
2022/03/04 07:20:41;;;;;;;2.72;2.63;;;;;;;-0.77;84.73;101646.50;6013052;23;20039;-69
2022/03/04 07:23:07;;;;;;;2.63;2.53;;;;;;;-0.61;83.34;101651.78;5988137;23;20035;-69
2022/03/04 07:25:34;;;;;;;3.25;3.05;;;;;;;-0.45;83.10;101657.09;6019814;23;20353;-69
2022/03/04 07:28:00;;;;;;;5.00;4.70;;;;;;;-0.27;81.62;101672.72;5990615;23;20022;-69
2022/03/04 07:30:27;;;;;;;2.80;2.70;;;;;;;-0.10;79.93;101657.41;6016758;23;20026;-69
2022/03/04 07:32:53;;;;;;;4.20;4.00;;;;;;;0.11;79.36;101664.41;5966098;23;20466;-69
2022/03/04 07:35:20;;;;;;;2.95;2.85;;;;;;;0.27;78.90;101655.03;6026247;23;20283;-69
2022/03/04 07:37:46;;;;;;;4.30;4.13;;;;;;;0.34;78.56;101649.06;6006511;23;20054;-68
2022/03/04 07:40:14;;;;;;;2.75;2.65;;;;;;;0.53;78.11;101664.66;6016305;23;20027;-68
2022/03/04 07:42:42;;;;;;;2.70;2.60;;;;;;;0.65;76.57;101663.84;6026117;23;20135;-68
2022/03/04 07:45:10;;;;;;;2.60;2.50;;;;;;;0.37;76.75;101597.41;5992546;23;20032;-68
2022/03/04 07:47:38;;;;;;;2.80;2.70;;;;;;;0.46;75.93;101606.94;6013111;23;20027;-68
2022/03/04 07:50:07;;;;;;;3.72;3.53;;;;;;;1.02;74.93;101661.38;6023538;23;20027;-68
2022/03/04 07:52:33;;;;;;;2.63;2.53;;;;;;;0.99;74.35;101631.22;6009182;23;20043;-68
2022/03/04 07:55:02;;;;;;;4.00;3.83;;;;;;;0.95;72.33;101601.06;6012357;23;20030;-69
2022/03/04 07:57:29;;;;;;;4.15;3.88;;;;;;;1.19;70.26;101592.47;6011805;23;20026;-68
2022/03/04 07:59:55;;;;;;;4.45;4.25;;;;;;;1.71;68.56;101643.38;6014730;23;20588;-68
2022/03/04 08:02:22;;;;;;;3.22;3.08;;;;;;;1.87;66.92;101657.16;6014924;23;20026;-67
2022/03/04 08:04:49;;;;;;;3.88;3.72;;;;;;;1.89;65.64;101633.00;5989905;23;20097;-68
2022/03/04 08:07:17;;;;;;;3.30;3.20;;;;;;;2.27;64.32;101660.56;6020420;23;20121;-67
2022/03/04 08:09:43;;;;;;;3.00;2.90;;;;;;;2.02;63.07;101615.72;5991524;23;20066;-68
2022/03/04 08:12:11;;;;;;;2.88;2.78;;;;;;;1.95;62.85;101588.97;6017675;23;20273;-68
2022/03/04 08:14:38;;;;;;;2.90;2.80;;;;;;;2.26;62.85;101626.88;5993696;23;20039;-68
2022/03/04 08:17:05;;;;;;;3.50;3.40;;;;;;;2.63;62.20;101673.41;6016732;23;20220;-68
2022/03/04 08:19:33;;;;;;;5.00;3.95;;;;;;;2.49;60.71;101630.25;5991436;23;20363;-68
2022/03/04 08:21:59;;;;;;;4.75;4.55;;;;;;;2.82;60.77;101666.41;6019791;23;20405;-68
2022/03/04 08:24:45;;;;;;;3.30;3.20;;;;;;;1.73;61.30;101478.63;5978184;23;20022;-68
2022/03/04 08:27:12;;;;;;;3.38;3.28;;;;;;;3.00;60.57;101689.66;6014400;23;20022;-67
2022/03/04 08:29:38;;;;;;;3.22;3.05;;;;;;;3.13;60.25;101682.69;6021179;23;20495;-68
2022/03/04 08:32:05;;;;;;;4.43;4.22;;;;;;;3.20;59.09;101692.13;6011204;23;20097;-68
2022/03/04 08:34:32;;;;;;;3.00;2.90;;;;;;;3.30;58.37;101692.94;5993790;23;20105;-68
2022/03/04 08:36:58;;;;;;;5.07;4.88;;;;;;;3.38;58.57;101683.38;6020150;23;20050;-67
2022/03/04 08:39:25;;;;;;;4.13;3.85;;;;;;;3.06;57.83;101619.59;5990774;23;20557;-67
2022/03/04 08:41:51;;;;;;;3.95;3.78;;;;;;;3.50;57.93;101683.28;6022250;23;20026;-68
2022/03/04 08:44:18;;;;;;;3.65;3.50;;;;;;;3.62;58.32;101684.09;5988019;23;20160;-68
2022/03/04 08:46:44;;;;;;;3.67;3.53;;;;;;;3.46;58.20;101644.41;6011393;23;20031;-68
2022/03/04 08:49:11;;;;;;;3.30;3.20;;;;;;;3.74;57.45;101681.41;5988650;23;20018;-69
2022/03/04 08:51:38;;;;;;;3.22;3.13;;;;;;;3.59;55.35;101638.25;6020053;23;20193;-68
2022/03/04 08:54:06;;;;;;;3.40;3.30;;;;;;;3.22;56.06;101573.66;5995434;23;20290;-68
2022/03/04 08:56:33;;;;;;;6.88;3.42;;;;;;;4.05;55.81;101687.19;6018606;23;20026;-68
2022/03/04 08:59:01;;;;;;;4.55;4.35;;;;;;;4.15;55.56;101693.16;5987490;23;20102;-68
2022/03/04 09:01:28;;;;;;;3.20;3.10;;;;;;;3.02;55.70;101485.66;6019310;23;20155;-68
2022/03/04 09:03:55;;;;;;;4.78;4.57;;;;;;;3.87;55.79;101617.22;5992538;23;20464;-68
2022/03/04 09:06:21;;;;;;;3.00;2.90;;;;;;;3.96;54.60;101619.75;6023869;23;20106;-68
2022/03/04 09:08:48;;;;;;;4.28;4.07;;;;;;;4.47;53.46;101676.38;6016402;23;20400;-68
2022/03/04 09:11:14;;;;;;;3.55;3.35;;;;;;;4.53;54.40;101681.50;5999371;23;20401;-69
2022/03/04 09:13:41;;;;;;;2.80;2.70;;;;;;;4.51;53.89;101678.94;5974696;23;20039;-69
2022/03/04 09:16:07;;;;;;;3.47;3.30;;;;;;;4.53;54.15;101686.69;6017301;23;20030;-68
2022/03/04 09:18:34;;;;;;;2.97;2.88;;;;;;;4.59;53.90;101674.50;5998622;23;20027;-69
2022/03/04 09:21:02;;;;;;;3.00;2.90;;;;;;;4.36;53.65;101609.78;6011837;23;20015;-68
2022/03/04 09:23:28;;;;;;;3.00;2.90;;;;;;;4.71;53.72;101650.09;5993893;23;20025;-68
2022/03/04 09:25:54;;;;;;;4.90;4.53;;;;;;;4.96;53.62;101680.97;6015787;23;20030;-69
2022/03/04 09:28:21;;;;;;;4.07;3.88;;;;;;;4.91;52.27;101667.16;5994062;23;20019;-68
2022/03/04 09:30:47;;;;;;;4.68;4.20;;;;;;;5.12;51.99;101692.06;6020540;23;20023;-64
2022/03/04 09:33:14;;;;;;;4.32;4.10;;;;;;;5.15;51.87;101676.38;5989073;23;20238;-67
2022/03/04 09:35:41;;;;;;;3.20;3.10;;;;;;;5.22;51.72;101692.78;6010641;23;20374;-68
2022/03/04 09:38:07;;;;;;;3.30;3.20;;;;;;;5.09;50.08;101656.53;5991266;23;20019;-69
2022/03/04 09:40:34;;;;;;;3.20;3.10;;;;;;;5.44;49.89;101696.78;6017867;23;20094;-69
2022/03/04 09:43:01;;;;;;;3.80;3.70;;;;;;;5.55;49.77;101686.22;5987447;23;20015;-69
2022/03/04 09:45:27;;;;;;;3.20;3.10;;;;;;;5.76;49.23;101687.63;6020839;23;20082;-70
2022/03/04 09:47:53;;;;;;;5.30;5.05;;;;;;;5.83;49.54;101683.16;5985328;23;20090;-69
2022/03/04 09:50:20;;;;;;;3.35;3.25;;;;;;;5.88;49.75;101683.97;6011569;23;20068;-70
2022/03/04 09:52:46;;;;;;;4.28;4.10;;;;;;;5.72;49.38;101626.06;5987924;23;20484;-71
2022/03/04 09:55:13;;;;;;;4.82;4.43;;;;;;;6.18;48.82;101687.81;6014585;23;20113;-70
2022/03/04 09:57:41;;;;;;;3.78;3.58;;;;;;;6.31;47.88;101688.44;5989971;23;20420;-71
2022/03/04 10:00:11;;;;;;;4.13;3.80;;;;;;;5.22;48.24;101502.81;6021332;23;20353;-69
2022/03/04 10:02:38;;;;;;;5.22;3.65;;;;;;;5.97;47.67;101606.53;6011756;23;20045;-69
2022/03/04 10:05:05;;;;;;;3.58;3.47;;;;;;;6.46;47.25;101671.66;5995870;23;21082;-70
2022/03/04 10:07:42;;;;;;;3.50;3.40;;;;;;;6.63;47.53;101695.66;6016784;23;20046;-69
2022/03/04 10:10:12;;;;;;;4.13;3.85;;;;;;;6.48;46.98;101659.47;5993847;23;20207;-71
2022/03/04 10:12:58;;;;;;;3.97;3.78;;;;;;;6.44;46.37;101606.50;5993298;23;20275;-70
2022/03/04 10:15:25;;;;;;;4.40;4.20;;;;;;;6.14;46.58;101535.00;5985850;23;20020;-68
2022/03/04 10:17:58;;;;;;;5.65;5.35;;;;;;;7.17;45.75;101678.88;6013046;23;20013;-69
2022/03/04 10:20:51;;;;;;;3.92;3.55;;;;;;;6.39;44.75;101530.13;6013668;23;20016;-69
2022/03/04 10:23:20;;;;;;;4.18;3.95;;;;;;;7.21;45.35;101675.28;5988093;23;20015;-69
2022/03/04 10:25:49;;;;;;;4.72;4.43;;;;;;;6.75;45.32;101611.06;6014119;23;20015;-69
2022/03/04 10:28:16;;;;;;;4.80;4.50;;;;;;;7.15;44.99;101668.44;5992947;23;20023;-70
2022/03/04 10:30:48;;;;;;;3.42;3.33;;;;;;;7.08;45.35;101626.88;6027180;23;20085;-69
2022/03/04 10:33:25;;;;;;;3.50;3.40;;;;;;;7.06;44.01;101616.47;5991129;23;20032;-69
2022/03/04 10:36:12;;;;;;;4.85;4.65;;;;;;;7.14;44.77;101613.69;6016655;23;20396;-69
2022/03/04 10:38:41;;;;;;;3.60;3.40;;;;;;;7.23;45.71;101597.78;5989803;23;20527;-69
2022/03/04 10:41:21;;;;;;;4.43;4.13;;;;;;;7.54;44.53;101605.75;6011877;23;20031;-69
2022/03/04 10:43:48;;;;;;;4.82;4.63;;;;;;;8.16;42.70;101672.13;5992952;23;20250;-69
2022/03/04 10:46:14;;;;;;;3.55;3.45;;;;;;;8.13;42.48;101665.22;6016612;23;20023;-69
2022/03/04 10:48:50;;;;;;;4.40;4.13;;;;;;;8.03;43.16;101676.81;5995296;23;20035;-69
2022/03/04 10:51:36;;;;;;;3.92;3.72;;;;;;;7.97;43.65;101662.13;6017498;23;20090;-68
2022/03/04 10:54:29;;;;;;;3.95;3.75;;;;;;;8.11;43.32;101655.69;5996931;23;20334;-68
2022/03/04 10:56:56;;;;;;;4.82;4.63;;;;;;;8.35;42.73;101660.25;6017908;23;20030;-68
2022/03/04 10:59:24;;;;;;;3.60;3.50;;;;;;;8.60;41.36;101670.09;5994773;23;20074;-68
2022/03/04 11:01:55;;;;;;;5.47;5.10;;;;;;;8.61;42.46;101661.31;6014868;23;20019;-68
2022/03/04 11:04:22;;;;;;;3.97;3.78;;;;;;;8.82;42.26;101653.75;6023754;23;20039;-68
2022/03/04 11:06:49;;;;;;;6.10;5.53;;;;;;;8.94;41.90;101642.91;6023189;23;20019;-64
2022/03/04 11:09:24;;;;;;;3.90;3.70;;;;;;;8.66;40.89;101621.94;5987205;23;20055;-68
2022/03/04 11:11:52;;;;;;;6.38;5.57;;;;;;;7.93;41.25;101468.84;6020086;23;20018;-68
2022/03/04 11:14:20;;;;;;;4.50;4.30;;;;;;;9.14;40.83;101658.00;5992725;23;20163;-69
2022/03/04 11:16:49;;;;;;;4.57;4.38;;;;;;;9.23;41.14;101654.28;6008308;23;20338;-71
2022/03/04 11:19:17;;;;;;;4.40;4.20;;;;;;;9.43;39.81;101659.72;5990405;23;20074;-68
2022/03/04 11:21:44;;;;;;;4.05;3.85;;;;;;;9.36;39.36;101658.19;6018655;23;20018;-69
2022/03/04 11:24:11;;;;;;;3.85;3.65;;;;;;;9.18;39.05;101620.34;5988868;23;20030;-68
2022/03/04 11:26:42;;;;;;;4.93;4.72;;;;;;;9.04;38.29;101606.81;6023395;23;20022;-69
2022/03/04 11:29:35;;;;;;;4.10;3.90;;;;;;;9.55;39.25;101651.47;6024997;23;20030;-69